sensor_id;sensor_type;location;lat;lon;timestamp;temperature;humidity
7254;DHT22;4060;49.186;9.226;2023-07-30T00:01:40;24.30;72.50
7254;DHT22;4060;49.186;9.226;2023-07-30T00:04:09;24.30;72.50
7254;DHT22;4060;49.186;9.226;2023-07-30T00:06:41;24.30;72.60
7254;DHT22;4060;49.186;9.226;2023-07-30T00:09:11;24.30;72.60
7254;DHT22;4060;49.186;9.226;2023-07-30T00:11:41;24.30;72.70
7254;DHT22;4060;49.186;9.226;2023-07-30T00:14:10;24.30;72.90
7254;DHT22;4060;49.186;9.226;2023-07-30T00:16:40;24.20;72.70
7254;DHT22;4060;49.186;9.226;2023-07-30T00:19:11;24.20;72.80
7254;DHT22;4060;49.186;9.226;2023-07-30T00:21:43;24.20;72.80
7254;DHT22;4060;49.186;9.226;2023-07-30T00:24:13;24.20;72.80
7254;DHT22;4060;49.186;9.226;2023-07-30T00:26:43;24.20;72.80
7254;DHT22;4060;49.186;9.226;2023-07-30T00:29:12;24.20;72.80
7254;DHT22;4060;49.186;9.226;2023-07-30T00:31:42;24.20;72.90
7254;DHT22;4060;49.186;9.226;2023-07-30T00:34:12;24.10;72.90
7254;DHT22;4060;49.186;9.226;2023-07-30T00:36:43;24.10;73.00
7254;DHT22;4060;49.186;9.226;2023-07-30T00:39:12;24.10;73.00
7254;DHT22;4060;49.186;9.226;2023-07-30T00:41:42;24.10;73.10
7254;DHT22;4060;49.186;9.226;2023-07-30T00:44:13;24.10;73.10
7254;DHT22;4060;49.186;9.226;2023-07-30T00:46:42;24.10;73.20
7254;DHT22;4060;49.186;9.226;2023-07-30T00:49:13;24.10;73.20
7254;DHT22;4060;49.186;9.226;2023-07-30T00:51:46;24.10;73.30
7254;DHT22;4060;49.186;9.226;2023-07-30T00:54:15;24.10;73.40
7254;DHT22;4060;49.186;9.226;2023-07-30T00:56:50;24.00;73.20
7254;DHT22;4060;49.186;9.226;2023-07-30T00:59:20;24.00;73.30
7254;DHT22;4060;49.186;9.226;2023-07-30T01:01:51;24.00;73.30
7254;DHT22;4060;49.186;9.226;2023-07-30T01:04:22;24.00;73.40
7254;DHT22;4060;49.186;9.226;2023-07-30T01:06:53;24.00;73.50
7254;DHT22;4060;49.186;9.226;2023-07-30T01:09:23;24.00;73.60
7254;DHT22;4060;49.186;9.226;2023-07-30T01:11:53;24.00;73.60
7254;DHT22;4060;49.186;9.226;2023-07-30T01:14:24;24.00;73.60
7254;DHT22;4060;49.186;9.226;2023-07-30T01:16:54;24.00;73.60
7254;DHT22;4060;49.186;9.226;2023-07-30T01:19:25;23.90;73.60
7254;DHT22;4060;49.186;9.226;2023-07-30T01:21:58;23.90;73.70
7254;DHT22;4060;49.186;9.226;2023-07-30T01:24:27;23.90;73.90
7254;DHT22;4060;49.186;9.226;2023-07-30T01:27:01;23.90;73.90
7254;DHT22;4060;49.186;9.226;2023-07-30T01:29:37;23.90;74.00
7254;DHT22;4060;49.186;9.226;2023-07-30T01:32:09;23.90;74.00
7254;DHT22;4060;49.186;9.226;2023-07-30T01:34:41;23.80;73.80
7254;DHT22;4060;49.186;9.226;2023-07-30T01:37:15;23.80;73.80
7254;DHT22;4060;49.186;9.226;2023-07-30T01:39:46;23.80;73.70
7254;DHT22;4060;49.186;9.226;2023-07-30T01:42:18;23.80;73.70
7254;DHT22;4060;49.186;9.226;2023-07-30T01:44:47;23.80;73.90
7254;DHT22;4060;49.186;9.226;2023-07-30T01:47:17;23.80;73.90
7254;DHT22;4060;49.186;9.226;2023-07-30T01:49:46;23.80;74.10
7254;DHT22;4060;49.186;9.226;2023-07-30T01:52:18;23.80;74.20
7254;DHT22;4060;49.186;9.226;2023-07-30T01:54:47;23.80;74.20
7254;DHT22;4060;49.186;9.226;2023-07-30T01:57:17;23.80;74.30
7254;DHT22;4060;49.186;9.226;2023-07-30T01:59:46;23.70;74.20
7254;DHT22;4060;49.186;9.226;2023-07-30T02:02:15;23.70;74.10
7254;DHT22;4060;49.186;9.226;2023-07-30T02:04:46;23.70;74.20
7254;DHT22;4060;49.186;9.226;2023-07-30T02:07:18;23.70;74.40
7254;DHT22;4060;49.186;9.226;2023-07-30T02:09:48;23.70;74.30
7254;DHT22;4060;49.186;9.226;2023-07-30T02:12:17;23.70;74.20
7254;DHT22;4060;49.186;9.226;2023-07-30T02:14:46;23.70;74.20
7254;DHT22;4060;49.186;9.226;2023-07-30T02:17:16;23.70;74.30
7254;DHT22;4060;49.186;9.226;2023-07-30T02:19:46;23.60;74.10
7254;DHT22;4060;49.186;9.226;2023-07-30T02:22:18;23.60;74.10
7254;DHT22;4060;49.186;9.226;2023-07-30T02:24:47;23.60;74.10
7254;DHT22;4060;49.186;9.226;2023-07-30T02:27:17;23.60;74.10
7254;DHT22;4060;49.186;9.226;2023-07-30T02:29:46;23.60;74.00
7254;DHT22;4060;49.186;9.226;2023-07-30T02:32:16;23.60;74.10
7254;DHT22;4060;49.186;9.226;2023-07-30T02:34:45;23.60;74.10
7254;DHT22;4060;49.186;9.226;2023-07-30T02:37:14;23.60;74.00
7254;DHT22;4060;49.186;9.226;2023-07-30T02:39:46;23.50;73.90
7254;DHT22;4060;49.186;9.226;2023-07-30T02:42:15;23.50;73.90
7254;DHT22;4060;49.186;9.226;2023-07-30T02:44:44;23.50;74.00
7254;DHT22;4060;49.186;9.226;2023-07-30T02:47:14;23.50;74.00
7254;DHT22;4060;49.186;9.226;2023-07-30T02:49:43;23.50;74.00
7254;DHT22;4060;49.186;9.226;2023-07-30T02:52:13;23.50;74.00
7254;DHT22;4060;49.186;9.226;2023-07-30T02:54:47;23.50;74.00
7254;DHT22;4060;49.186;9.226;2023-07-30T02:57:16;23.50;74.00
7254;DHT22;4060;49.186;9.226;2023-07-30T02:59:45;23.40;73.90
7254;DHT22;4060;49.186;9.226;2023-07-30T03:02:15;23.40;73.90
7254;DHT22;4060;49.186;9.226;2023-07-30T03:04:44;23.40;74.10
7254;DHT22;4060;49.186;9.226;2023-07-30T03:07:14;23.40;74.20
7254;DHT22;4060;49.186;9.226;2023-07-30T03:09:43;23.40;74.30
7254;DHT22;4060;49.186;9.226;2023-07-30T03:12:15;23.40;74.30
7254;DHT22;4060;49.186;9.226;2023-07-30T03:14:44;23.40;74.30
7254;DHT22;4060;49.186;9.226;2023-07-30T03:17:14;23.40;74.30
7254;DHT22;4060;49.186;9.226;2023-07-30T03:19:44;23.30;74.20
7254;DHT22;4060;49.186;9.226;2023-07-30T03:22:14;23.30;74.20
7254;DHT22;4060;49.186;9.226;2023-07-30T03:24:46;23.30;74.30
7254;DHT22;4060;49.186;9.226;2023-07-30T03:27:17;23.30;74.40
7254;DHT22;4060;49.186;9.226;2023-07-30T03:29:47;23.30;74.40
7254;DHT22;4060;49.186;9.226;2023-07-30T03:32:19;23.30;74.40
7254;DHT22;4060;49.186;9.226;2023-07-30T03:34:48;23.30;74.40
7254;DHT22;4060;49.186;9.226;2023-07-30T03:37:18;23.30;74.40
7254;DHT22;4060;49.186;9.226;2023-07-30T03:39:47;23.30;74.40
7254;DHT22;4060;49.186;9.226;2023-07-30T03:42:19;23.30;74.40
7254;DHT22;4060;49.186;9.226;2023-07-30T03:44:48;23.20;74.30
7254;DHT22;4060;49.186;9.226;2023-07-30T03:47:17;23.20;74.30
7254;DHT22;4060;49.186;9.226;2023-07-30T03:49:48;23.20;74.50
7254;DHT22;4060;49.186;9.226;2023-07-30T03:52:18;23.20;74.50
7254;DHT22;4060;49.186;9.226;2023-07-30T03:54:47;23.20;74.60
7254;DHT22;4060;49.186;9.226;2023-07-30T03:57:19;23.20;74.70
7254;DHT22;4060;49.186;9.226;2023-07-30T03:59:48;23.20;74.70
7254;DHT22;4060;49.186;9.226;2023-07-30T04:02:18;23.20;74.80
7254;DHT22;4060;49.186;9.226;2023-07-30T04:04:47;23.10;74.60
7254;DHT22;4060;49.186;9.226;2023-07-30T04:07:17;23.10;74.70
7254;DHT22;4060;49.186;9.226;2023-07-30T04:09:47;23.10;74.60
7254;DHT22;4060;49.186;9.226;2023-07-30T04:12:19;23.10;74.80
7254;DHT22;4060;49.186;9.226;2023-07-30T04:14:49;23.10;74.80
7254;DHT22;4060;49.186;9.226;2023-07-30T04:17:19;23.10;74.90
7254;DHT22;4060;49.186;9.226;2023-07-30T04:19:48;23.10;75.00
7254;DHT22;4060;49.186;9.226;2023-07-30T04:22:19;23.10;75.10
7254;DHT22;4060;49.186;9.226;2023-07-30T04:24:49;23.10;75.90
7254;DHT22;4060;49.186;9.226;2023-07-30T04:27:20;23.10;75.20
7254;DHT22;4060;49.186;9.226;2023-07-30T04:29:50;23.10;75.30
7254;DHT22;4060;49.186;9.226;2023-07-30T04:32:20;23.10;75.40
7254;DHT22;4060;49.186;9.226;2023-07-30T04:34:49;23.10;75.60
7254;DHT22;4060;49.186;9.226;2023-07-30T04:37:31;23.00;75.50
7254;DHT22;4060;49.186;9.226;2023-07-30T04:40:01;23.00;75.70
7254;DHT22;4060;49.186;9.226;2023-07-30T04:42:33;23.00;75.60
7254;DHT22;4060;49.186;9.226;2023-07-30T04:45:03;23.00;75.80
7254;DHT22;4060;49.186;9.226;2023-07-30T04:47:33;23.00;75.90
7254;DHT22;4060;49.186;9.226;2023-07-30T04:50:03;23.00;76.00
7254;DHT22;4060;49.186;9.226;2023-07-30T04:52:33;23.00;76.00
7254;DHT22;4060;49.186;9.226;2023-07-30T04:55:02;23.00;76.20
7254;DHT22;4060;49.186;9.226;2023-07-30T04:57:34;23.00;76.30
7254;DHT22;4060;49.186;9.226;2023-07-30T05:00:04;23.00;76.40
7254;DHT22;4060;49.186;9.226;2023-07-30T05:02:34;23.00;76.50
7254;DHT22;4060;49.186;9.226;2023-07-30T05:05:06;23.00;76.50
7254;DHT22;4060;49.186;9.226;2023-07-30T05:07:57;23.00;76.60
7254;DHT22;4060;49.186;9.226;2023-07-30T05:10:32;23.00;76.80
7254;DHT22;4060;49.186;9.226;2023-07-30T05:13:06;22.90;76.80
7254;DHT22;4060;49.186;9.226;2023-07-30T05:15:36;22.90;77.00
7254;DHT22;4060;49.186;9.226;2023-07-30T05:18:05;22.90;77.30
7254;DHT22;4060;49.186;9.226;2023-07-30T05:20:35;22.90;77.70
7254;DHT22;4060;49.186;9.226;2023-07-30T05:34:10;22.80;78.30
7254;DHT22;4060;49.186;9.226;2023-07-30T05:36:46;22.70;77.80
7254;DHT22;4060;49.186;9.226;2023-07-30T05:39:19;22.70;77.90
7254;DHT22;4060;49.186;9.226;2023-07-30T05:41:50;22.70;77.80
7254;DHT22;4060;49.186;9.226;2023-07-30T05:44:19;22.70;77.70
7254;DHT22;4060;49.186;9.226;2023-07-30T05:46:49;22.70;77.70
7254;DHT22;4060;49.186;9.226;2023-07-30T05:49:21;22.70;77.60
7254;DHT22;4060;49.186;9.226;2023-07-30T05:51:50;22.70;77.50
7254;DHT22;4060;49.186;9.226;2023-07-30T05:54:19;22.70;77.50
7254;DHT22;4060;49.186;9.226;2023-07-30T05:56:49;22.70;78.40
7254;DHT22;4060;49.186;9.226;2023-07-30T05:59:19;22.70;77.60
7254;DHT22;4060;49.186;9.226;2023-07-30T06:01:49;22.60;78.20
7254;DHT22;4060;49.186;9.226;2023-07-30T06:04:22;22.60;77.50
7254;DHT22;4060;49.186;9.226;2023-07-30T06:06:51;22.60;77.60
7254;DHT22;4060;49.186;9.226;2023-07-30T06:09:21;22.60;77.70
7254;DHT22;4060;49.186;9.226;2023-07-30T06:11:50;22.60;77.80
7254;DHT22;4060;49.186;9.226;2023-07-30T06:14:22;22.60;77.70
7254;DHT22;4060;49.186;9.226;2023-07-30T06:16:52;22.60;77.70
7254;DHT22;4060;49.186;9.226;2023-07-30T06:19:24;22.60;77.90
7254;DHT22;4060;49.186;9.226;2023-07-30T06:21:54;22.60;78.00
7254;DHT22;4060;49.186;9.226;2023-07-30T06:24:23;22.60;78.10
7254;DHT22;4060;49.186;9.226;2023-07-30T06:26:53;22.60;78.10
7254;DHT22;4060;49.186;9.226;2023-07-30T06:29:22;22.60;78.20
7254;DHT22;4060;49.186;9.226;2023-07-30T06:31:52;22.60;78.20
7254;DHT22;4060;49.186;9.226;2023-07-30T06:34:23;22.50;78.20
7254;DHT22;4060;49.186;9.226;2023-07-30T06:36:54;22.60;78.30
7254;DHT22;4060;49.186;9.226;2023-07-30T06:39:23;22.60;78.30
7254;DHT22;4060;49.186;9.226;2023-07-30T06:41:53;22.60;78.50
7254;DHT22;4060;49.186;9.226;2023-07-30T06:44:32;22.60;78.50
7254;DHT22;4060;49.186;9.226;2023-07-30T06:47:01;22.50;78.40
7254;DHT22;4060;49.186;9.226;2023-07-30T06:49:33;22.50;78.60
7254;DHT22;4060;49.186;9.226;2023-07-30T06:52:04;22.60;78.90
7254;DHT22;4060;49.186;9.226;2023-07-30T06:54:33;22.50;78.90
7254;DHT22;4060;49.186;9.226;2023-07-30T06:57:04;22.50;79.10
7254;DHT22;4060;49.186;9.226;2023-07-30T06:59:34;22.50;79.30
7254;DHT22;4060;49.186;9.226;2023-07-30T07:02:04;22.50;79.40
7254;DHT22;4060;49.186;9.226;2023-07-30T07:04:36;22.50;79.70
7254;DHT22;4060;49.186;9.226;2023-07-30T07:07:06;22.50;80.00
7254;DHT22;4060;49.186;9.226;2023-07-30T07:09:36;22.50;80.20
7254;DHT22;4060;49.186;9.226;2023-07-30T07:12:06;22.50;80.30
7254;DHT22;4060;49.186;9.226;2023-07-30T07:14:37;22.50;80.40
7254;DHT22;4060;49.186;9.226;2023-07-30T07:17:08;22.60;80.80
7254;DHT22;4060;49.186;9.226;2023-07-30T07:19:40;22.60;81.00
7254;DHT22;4060;49.186;9.226;2023-07-30T07:22:10;22.50;81.00
7254;DHT22;4060;49.186;9.226;2023-07-30T07:24:40;22.60;81.10
7254;DHT22;4060;49.186;9.226;2023-07-30T07:27:12;22.60;81.30
7254;DHT22;4060;49.186;9.226;2023-07-30T07:29:42;22.50;81.30
7254;DHT22;4060;49.186;9.226;2023-07-30T07:32:11;22.50;81.40
7254;DHT22;4060;49.186;9.226;2023-07-30T07:34:46;22.60;81.50
7254;DHT22;4060;49.186;9.226;2023-07-30T07:37:17;22.60;81.70
7254;DHT22;4060;49.186;9.226;2023-07-30T07:39:47;22.60;81.90
7254;DHT22;4060;49.186;9.226;2023-07-30T07:42:20;22.60;81.90
7254;DHT22;4060;49.186;9.226;2023-07-30T07:44:50;22.60;81.80
7254;DHT22;4060;49.186;9.226;2023-07-30T07:47:19;22.60;81.70
7254;DHT22;4060;49.186;9.226;2023-07-30T07:49:51;22.60;81.80
7254;DHT22;4060;49.186;9.226;2023-07-30T07:52:21;22.60;81.90
7254;DHT22;4060;49.186;9.226;2023-07-30T07:54:50;22.60;81.90
7254;DHT22;4060;49.186;9.226;2023-07-30T07:57:20;22.60;82.20
7254;DHT22;4060;49.186;9.226;2023-07-30T07:59:50;22.60;82.10
7254;DHT22;4060;49.186;9.226;2023-07-30T08:02:20;22.60;82.20
7254;DHT22;4060;49.186;9.226;2023-07-30T08:04:54;22.60;82.10
7254;DHT22;4060;49.186;9.226;2023-07-30T08:07:24;22.60;82.50
7254;DHT22;4060;49.186;9.226;2023-07-30T08:09:54;22.60;82.60
7254;DHT22;4060;49.186;9.226;2023-07-30T08:12:23;22.60;82.60
7254;DHT22;4060;49.186;9.226;2023-07-30T08:14:54;22.60;82.70
7254;DHT22;4060;49.186;9.226;2023-07-30T08:17:23;22.60;82.60
7254;DHT22;4060;49.186;9.226;2023-07-30T08:19:55;22.60;82.50
7254;DHT22;4060;49.186;9.226;2023-07-30T08:22:25;22.60;82.60
7254;DHT22;4060;49.186;9.226;2023-07-30T08:24:55;22.60;82.40
7254;DHT22;4060;49.186;9.226;2023-07-30T08:27:25;22.60;82.40
7254;DHT22;4060;49.186;9.226;2023-07-30T08:29:55;22.60;82.50
7254;DHT22;4060;49.186;9.226;2023-07-30T08:32:25;22.60;82.40
7254;DHT22;4060;49.186;9.226;2023-07-30T08:34:57;22.60;82.40
7254;DHT22;4060;49.186;9.226;2023-07-30T08:37:26;22.60;82.40
7254;DHT22;4060;49.186;9.226;2023-07-30T08:39:56;22.60;82.30
7254;DHT22;4060;49.186;9.226;2023-07-30T08:42:26;22.60;82.30
7254;DHT22;4060;49.186;9.226;2023-07-30T08:44:56;22.60;82.40
7254;DHT22;4060;49.186;9.226;2023-07-30T08:47:26;22.60;82.50
7254;DHT22;4060;49.186;9.226;2023-07-30T08:49:57;22.60;82.70
7254;DHT22;4060;49.186;9.226;2023-07-30T08:52:30;22.60;82.80
7254;DHT22;4060;49.186;9.226;2023-07-30T08:55:01;22.60;82.80
7254;DHT22;4060;49.186;9.226;2023-07-30T08:57:32;22.60;82.80
7254;DHT22;4060;49.186;9.226;2023-07-30T09:00:05;22.60;82.90
7254;DHT22;4060;49.186;9.226;2023-07-30T09:02:39;22.60;82.90
7254;DHT22;4060;49.186;9.226;2023-07-30T09:05:13;22.60;83.10
7254;DHT22;4060;49.186;9.226;2023-07-30T09:07:42;22.60;83.40
7254;DHT22;4060;49.186;9.226;2023-07-30T09:10:13;22.70;83.40
7254;DHT22;4060;49.186;9.226;2023-07-30T09:12:44;22.70;83.40
7254;DHT22;4060;49.186;9.226;2023-07-30T09:15:14;22.70;83.30
7254;DHT22;4060;49.186;9.226;2023-07-30T09:17:46;22.70;83.50
7254;DHT22;4060;49.186;9.226;2023-07-30T09:20:20;22.70;83.80
7254;DHT22;4060;49.186;9.226;2023-07-30T09:22:49;22.80;83.60
7254;DHT22;4060;49.186;9.226;2023-07-30T09:25:19;22.80;83.50
7254;DHT22;4060;49.186;9.226;2023-07-30T09:27:51;22.80;83.70
7254;DHT22;4060;49.186;9.226;2023-07-30T09:30:24;22.80;83.80
7254;DHT22;4060;49.186;9.226;2023-07-30T09:32:56;22.90;84.00
7254;DHT22;4060;49.186;9.226;2023-07-30T09:35:29;23.00;84.00
7254;DHT22;4060;49.186;9.226;2023-07-30T09:38:03;23.00;83.70
7254;DHT22;4060;49.186;9.226;2023-07-30T09:40:38;23.00;83.20
7254;DHT22;4060;49.186;9.226;2023-07-30T09:43:09;23.00;82.40
7254;DHT22;4060;49.186;9.226;2023-07-30T09:45:39;23.00;82.10
7254;DHT22;4060;49.186;9.226;2023-07-30T09:48:09;23.10;81.70
7254;DHT22;4060;49.186;9.226;2023-07-30T09:50:42;23.00;81.30
7254;DHT22;4060;49.186;9.226;2023-07-30T09:53:14;23.10;81.40
7254;DHT22;4060;49.186;9.226;2023-07-30T09:55:44;23.10;80.70
7254;DHT22;4060;49.186;9.226;2023-07-30T09:58:14;23.10;80.00
7254;DHT22;4060;49.186;9.226;2023-07-30T10:00:45;23.10;79.90
7254;DHT22;4060;49.186;9.226;2023-07-30T10:03:16;23.10;79.80
7254;DHT22;4060;49.186;9.226;2023-07-30T10:05:50;23.10;79.30
7254;DHT22;4060;49.186;9.226;2023-07-30T10:08:24;23.10;79.10
7254;DHT22;4060;49.186;9.226;2023-07-30T10:10:56;23.10;77.90
7254;DHT22;4060;49.186;9.226;2023-07-30T10:13:30;23.10;77.50
7254;DHT22;4060;49.186;9.226;2023-07-30T10:16:00;23.10;77.50
7254;DHT22;4060;49.186;9.226;2023-07-30T10:18:39;23.20;77.00
7254;DHT22;4060;49.186;9.226;2023-07-30T10:21:21;23.20;76.40
7254;DHT22;4060;49.186;9.226;2023-07-30T10:23:59;23.20;76.00
7254;DHT22;4060;49.186;9.226;2023-07-30T10:26:30;23.20;75.20
7254;DHT22;4060;49.186;9.226;2023-07-30T10:29:14;23.20;74.50
7254;DHT22;4060;49.186;9.226;2023-07-30T10:31:49;23.30;73.90
7254;DHT22;4060;49.186;9.226;2023-07-30T10:34:22;23.20;72.80
7254;DHT22;4060;49.186;9.226;2023-07-30T10:36:57;23.30;72.80
7254;DHT22;4060;49.186;9.226;2023-07-30T10:39:29;23.30;72.40
7254;DHT22;4060;49.186;9.226;2023-07-30T10:42:01;23.30;72.30
7254;DHT22;4060;49.186;9.226;2023-07-30T10:44:33;23.30;72.40
7254;DHT22;4060;49.186;9.226;2023-07-30T10:47:04;23.30;72.40
7254;DHT22;4060;49.186;9.226;2023-07-30T10:49:38;23.40;71.80
7254;DHT22;4060;49.186;9.226;2023-07-30T10:52:10;23.40;71.30
7254;DHT22;4060;49.186;9.226;2023-07-30T10:54:40;23.40;71.00
7254;DHT22;4060;49.186;9.226;2023-07-30T10:57:11;23.40;71.20
7254;DHT22;4060;49.186;9.226;2023-07-30T10:59:42;23.40;70.50
7254;DHT22;4060;49.186;9.226;2023-07-30T11:02:12;23.50;69.40
7254;DHT22;4060;49.186;9.226;2023-07-30T11:04:43;23.40;69.30
7254;DHT22;4060;49.186;9.226;2023-07-30T11:07:21;23.40;70.50
7254;DHT22;4060;49.186;9.226;2023-07-30T11:10:04;23.50;70.20
7254;DHT22;4060;49.186;9.226;2023-07-30T11:12:34;23.50;70.20
7254;DHT22;4060;49.186;9.226;2023-07-30T11:15:05;23.60;69.90
7254;DHT22;4060;49.186;9.226;2023-07-30T11:17:36;23.60;68.90
7254;DHT22;4060;49.186;9.226;2023-07-30T11:20:07;23.60;68.60
7254;DHT22;4060;49.186;9.226;2023-07-30T11:22:38;23.60;68.30
7254;DHT22;4060;49.186;9.226;2023-07-30T11:25:18;23.60;68.10
7254;DHT22;4060;49.186;9.226;2023-07-30T11:27:49;23.60;68.00
7254;DHT22;4060;49.186;9.226;2023-07-30T11:30:19;23.60;67.90
7254;DHT22;4060;49.186;9.226;2023-07-30T11:32:50;23.60;67.50
7254;DHT22;4060;49.186;9.226;2023-07-30T11:35:20;23.60;66.60
7254;DHT22;4060;49.186;9.226;2023-07-30T11:37:53;23.60;66.70
7254;DHT22;4060;49.186;9.226;2023-07-30T11:40:25;23.60;66.60
7254;DHT22;4060;49.186;9.226;2023-07-30T11:42:55;23.60;66.80
7254;DHT22;4060;49.186;9.226;2023-07-30T11:45:25;23.60;66.70
7254;DHT22;4060;49.186;9.226;2023-07-30T11:48:07;23.70;66.80
7254;DHT22;4060;49.186;9.226;2023-07-30T11:50:45;23.70;65.80
7254;DHT22;4060;49.186;9.226;2023-07-30T11:53:18;23.70;65.40
7254;DHT22;4060;49.186;9.226;2023-07-30T11:55:48;23.70;65.10
7254;DHT22;4060;49.186;9.226;2023-07-30T11:58:18;23.70;64.90
7254;DHT22;4060;49.186;9.226;2023-07-30T12:00:49;23.70;65.10
7254;DHT22;4060;49.186;9.226;2023-07-30T12:03:19;23.70;65.00
7254;DHT22;4060;49.186;9.226;2023-07-30T12:05:49;23.70;64.80
7254;DHT22;4060;49.186;9.226;2023-07-30T12:08:27;23.80;65.40
7254;DHT22;4060;49.186;9.226;2023-07-30T12:11:03;23.70;64.60
7254;DHT22;4060;49.186;9.226;2023-07-30T12:13:34;23.70;64.50
7254;DHT22;4060;49.186;9.226;2023-07-30T12:16:15;23.80;64.40
7254;DHT22;4060;49.186;9.226;2023-07-30T12:18:46;23.80;63.70
7254;DHT22;4060;49.186;9.226;2023-07-30T12:21:16;23.80;63.60
7254;DHT22;4060;49.186;9.226;2023-07-30T12:23:49;23.80;63.60
7254;DHT22;4060;49.186;9.226;2023-07-30T12:26:20;23.80;62.60
7254;DHT22;4060;49.186;9.226;2023-07-30T12:28:50;23.90;61.50
7254;DHT22;4060;49.186;9.226;2023-07-30T12:31:24;23.90;61.00
7254;DHT22;4060;49.186;9.226;2023-07-30T12:33:55;23.80;60.60
7254;DHT22;4060;49.186;9.226;2023-07-30T12:36:26;23.90;60.40
7254;DHT22;4060;49.186;9.226;2023-07-30T12:39:01;23.90;59.80
7254;DHT22;4060;49.186;9.226;2023-07-30T12:41:49;23.90;59.50
7254;DHT22;4060;49.186;9.226;2023-07-30T12:44:20;23.90;59.20
7254;DHT22;4060;49.186;9.226;2023-07-30T12:46:49;24.00;58.60
7254;DHT22;4060;49.186;9.226;2023-07-30T12:49:20;24.00;58.00
7254;DHT22;4060;49.186;9.226;2023-07-30T12:51:50;24.00;57.80
7254;DHT22;4060;49.186;9.226;2023-07-30T12:54:23;24.10;57.70
7254;DHT22;4060;49.186;9.226;2023-07-30T12:56:53;24.10;57.50
7254;DHT22;4060;49.186;9.226;2023-07-30T12:59:22;24.10;57.30
7254;DHT22;4060;49.186;9.226;2023-07-30T13:01:52;24.10;57.50
7254;DHT22;4060;49.186;9.226;2023-07-30T13:04:23;24.10;57.40
7254;DHT22;4060;49.186;9.226;2023-07-30T13:06:54;24.20;57.00
7254;DHT22;4060;49.186;9.226;2023-07-30T13:09:27;24.20;56.60
7254;DHT22;4060;49.186;9.226;2023-07-30T13:11:57;24.10;56.30
7254;DHT22;4060;49.186;9.226;2023-07-30T13:14:29;24.10;56.50
7254;DHT22;4060;49.186;9.226;2023-07-30T13:16:59;24.10;56.60
7254;DHT22;4060;49.186;9.226;2023-07-30T13:19:31;24.10;56.80
7254;DHT22;4060;49.186;9.226;2023-07-30T13:22:02;24.10;56.80
7254;DHT22;4060;49.186;9.226;2023-07-30T13:24:34;24.10;56.50
7254;DHT22;4060;49.186;9.226;2023-07-30T13:27:05;24.20;55.80
7254;DHT22;4060;49.186;9.226;2023-07-30T13:29:36;24.20;55.60
7254;DHT22;4060;49.186;9.226;2023-07-30T13:32:07;24.20;55.70
7254;DHT22;4060;49.186;9.226;2023-07-30T13:34:36;24.20;56.00
7254;DHT22;4060;49.186;9.226;2023-07-30T13:37:07;24.20;55.40
7254;DHT22;4060;49.186;9.226;2023-07-30T13:39:41;24.20;54.70
7254;DHT22;4060;49.186;9.226;2023-07-30T13:42:11;24.20;54.50
7254;DHT22;4060;49.186;9.226;2023-07-30T13:44:41;24.20;54.70
7254;DHT22;4060;49.186;9.226;2023-07-30T13:47:12;24.30;55.20
7254;DHT22;4060;49.186;9.226;2023-07-30T13:49:41;24.30;54.50
7254;DHT22;4060;49.186;9.226;2023-07-30T13:52:11;24.30;54.50
7254;DHT22;4060;49.186;9.226;2023-07-30T13:54:43;24.40;54.20
7254;DHT22;4060;49.186;9.226;2023-07-30T13:57:13;24.40;54.00
7254;DHT22;4060;49.186;9.226;2023-07-30T13:59:52;24.40;54.20
7254;DHT22;4060;49.186;9.226;2023-07-30T14:02:22;24.40;53.90
7254;DHT22;4060;49.186;9.226;2023-07-30T14:04:52;24.40;53.10
7254;DHT22;4060;49.186;9.226;2023-07-30T14:07:22;24.50;53.00
7254;DHT22;4060;49.186;9.226;2023-07-30T14:09:55;24.40;53.20
7254;DHT22;4060;49.186;9.226;2023-07-30T14:12:25;24.40;53.50
7254;DHT22;4060;49.186;9.226;2023-07-30T14:14:57;24.50;53.50
7254;DHT22;4060;49.186;9.226;2023-07-30T14:17:27;24.50;53.30
7254;DHT22;4060;49.186;9.226;2023-07-30T14:19:57;24.50;53.30
7254;DHT22;4060;49.186;9.226;2023-07-30T14:22:27;24.50;53.20
7254;DHT22;4060;49.186;9.226;2023-07-30T14:24:59;24.50;53.00
7254;DHT22;4060;49.186;9.226;2023-07-30T14:27:28;24.50;53.20
7254;DHT22;4060;49.186;9.226;2023-07-30T14:29:58;24.60;52.60
7254;DHT22;4060;49.186;9.226;2023-07-30T14:32:28;24.50;52.10
7254;DHT22;4060;49.186;9.226;2023-07-30T14:34:58;24.50;52.10
7254;DHT22;4060;49.186;9.226;2023-07-30T14:37:28;24.50;52.50
7254;DHT22;4060;49.186;9.226;2023-07-30T14:39:59;24.50;52.30
7254;DHT22;4060;49.186;9.226;2023-07-30T14:42:29;24.60;52.00
7254;DHT22;4060;49.186;9.226;2023-07-30T14:45:00;24.60;51.90
7254;DHT22;4060;49.186;9.226;2023-07-30T14:47:31;24.60;52.10
7254;DHT22;4060;49.186;9.226;2023-07-30T14:50:02;24.60;52.00
7254;DHT22;4060;49.186;9.226;2023-07-30T14:52:32;24.60;52.00
7254;DHT22;4060;49.186;9.226;2023-07-30T14:55:03;24.60;51.90
7254;DHT22;4060;49.186;9.226;2023-07-30T14:57:33;24.60;52.00
7254;DHT22;4060;49.186;9.226;2023-07-30T15:00:03;24.70;52.00
7254;DHT22;4060;49.186;9.226;2023-07-30T15:02:34;24.70;52.00
7254;DHT22;4060;49.186;9.226;2023-07-30T15:05:06;24.70;51.90
7254;DHT22;4060;49.186;9.226;2023-07-30T15:07:36;24.80;51.90
7254;DHT22;4060;49.186;9.226;2023-07-30T15:10:13;24.80;51.60
7254;DHT22;4060;49.186;9.226;2023-07-30T15:12:44;24.80;50.90
7254;DHT22;4060;49.186;9.226;2023-07-30T15:15:14;24.80;50.80
7254;DHT22;4060;49.186;9.226;2023-07-30T15:17:44;24.90;50.90
7254;DHT22;4060;49.186;9.226;2023-07-30T15:20:13;24.80;50.40
7254;DHT22;4060;49.186;9.226;2023-07-30T15:22:44;24.90;50.50
7254;DHT22;4060;49.186;9.226;2023-07-30T15:25:17;24.80;50.20
7254;DHT22;4060;49.186;9.226;2023-07-30T15:27:47;24.80;50.20
7254;DHT22;4060;49.186;9.226;2023-07-30T15:30:17;24.80;50.40
7254;DHT22;4060;49.186;9.226;2023-07-30T15:32:47;24.80;50.50
7254;DHT22;4060;49.186;9.226;2023-07-30T15:35:17;24.80;50.10
7254;DHT22;4060;49.186;9.226;2023-07-30T15:37:46;24.80;50.20
7254;DHT22;4060;49.186;9.226;2023-07-30T15:40:19;24.80;50.40
7254;DHT22;4060;49.186;9.226;2023-07-30T15:42:48;24.90;50.20
7254;DHT22;4060;49.186;9.226;2023-07-30T15:45:21;24.90;49.60
7254;DHT22;4060;49.186;9.226;2023-07-30T15:47:51;24.90;48.80
7254;DHT22;4060;49.186;9.226;2023-07-30T15:50:22;24.90;48.30
7254;DHT22;4060;49.186;9.226;2023-07-30T15:52:54;24.90;48.30
7254;DHT22;4060;49.186;9.226;2023-07-30T15:55:25;24.90;48.20
7254;DHT22;4060;49.186;9.226;2023-07-30T15:57:54;24.90;48.40
7254;DHT22;4060;49.186;9.226;2023-07-30T16:00:25;24.90;48.50
7254;DHT22;4060;49.186;9.226;2023-07-30T16:02:55;24.90;48.50
7254;DHT22;4060;49.186;9.226;2023-07-30T16:05:24;24.90;48.90
7254;DHT22;4060;49.186;9.226;2023-07-30T16:07:54;24.90;49.10
7254;DHT22;4060;49.186;9.226;2023-07-30T16:10:25;24.90;49.00
7254;DHT22;4060;49.186;9.226;2023-07-30T16:12:55;24.90;48.70
7254;DHT22;4060;49.186;9.226;2023-07-30T16:15:26;24.90;48.20
7254;DHT22;4060;49.186;9.226;2023-07-30T16:17:56;24.90;48.40
7254;DHT22;4060;49.186;9.226;2023-07-30T16:20:25;24.90;48.10
7254;DHT22;4060;49.186;9.226;2023-07-30T16:22:55;24.80;48.10
7254;DHT22;4060;49.186;9.226;2023-07-30T16:25:26;24.80;48.00
7254;DHT22;4060;49.186;9.226;2023-07-30T16:27:56;24.80;48.00
7254;DHT22;4060;49.186;9.226;2023-07-30T16:30:27;24.80;48.30
7254;DHT22;4060;49.186;9.226;2023-07-30T16:32:58;24.80;48.00
7254;DHT22;4060;49.186;9.226;2023-07-30T16:35:28;24.80;47.70
7254;DHT22;4060;49.186;9.226;2023-07-30T16:37:57;24.80;47.50